sensor_id;sensor_type;location;lat;lon;timestamp;P1;durP1;ratioP1;P2;durP2;ratioP2
73959;SDS011;62316;48.920;2.342;2023-06-10T04:02:19;10.33;;;8.00;;
73959;SDS011;62316;48.920;2.342;2023-06-10T04:04:51;7.33;;;7.33;;
73959;SDS011;62316;48.920;2.342;2023-06-10T04:07:17;9.33;;;8.00;;
73959;SDS011;62316;48.920;2.342;2023-06-10T04:09:45;9.00;;;8.00;;
73959;SDS011;62316;48.920;2.342;2023-06-10T04:12:11;10.00;;;10.00;;
73959;SDS011;62316;48.920;2.342;2023-06-10T04:14:37;8.67;;;7.33;;
73959;SDS011;62316;48.920;2.342;2023-06-10T04:17:04;8.67;;;6.00;;
73959;SDS011;62316;48.920;2.342;2023-06-10T04:19:31;8.67;;;8.00;;
73959;SDS011;62316;48.920;2.342;2023-06-10T04:21:57;9.00;;;8.33;;
73959;SDS011;62316;48.920;2.342;2023-06-10T04:24:22;7.33;;;6.00;;
73959;SDS011;62316;48.920;2.342;2023-06-10T04:26:48;6.67;;;6.67;;
73959;SDS011;62316;48.920;2.342;2023-06-10T04:29:13;8.00;;;6.67;;
73959;SDS011;62316;48.920;2.342;2023-06-10T04:31:38;9.33;;;6.33;;
73959;SDS011;62316;48.920;2.342;2023-06-10T04:34:12;7.00;;;7.00;;
73959;SDS011;62316;48.920;2.342;2023-06-10T04:36:37;8.33;;;8.00;;
73959;SDS011;62316;48.920;2.342;2023-06-10T04:39:03;7.67;;;6.00;;
73959;SDS011;62316;48.920;2.342;2023-06-10T04:41:30;8.67;;;7.00;;
73959;SDS011;62316;48.920;2.342;2023-06-10T04:43:56;6.00;;;6.00;;
73959;SDS011;62316;48.920;2.342;2023-06-10T04:46:22;6.67;;;5.00;;
73959;SDS011;62316;48.920;2.342;2023-06-10T04:48:48;5.67;;;5.67;;
73959;SDS011;62316;48.920;2.342;2023-06-10T04:51:13;7.00;;;7.00;;
73959;SDS011;62316;48.920;2.342;2023-06-10T04:53:39;7.33;;;6.33;;
73959;SDS011;62316;48.920;2.342;2023-06-10T04:56:04;6.33;;;5.67;;
73959;SDS011;62316;48.920;2.342;2023-06-10T04:58:29;11.67;;;9.33;;
73959;SDS011;62316;48.920;2.342;2023-06-10T05:01:01;3.00;;;3.00;;
73959;SDS011;62316;48.920;2.342;2023-06-10T05:03:33;9.33;;;8.00;;
73959;SDS011;62316;48.920;2.342;2023-06-10T05:05:59;7.00;;;7.00;;
73959;SDS011;62316;48.920;2.342;2023-06-10T05:08:24;7.00;;;7.00;;
73959;SDS011;62316;48.920;2.342;2023-06-10T05:10:50;8.67;;;7.67;;
73959;SDS011;62316;48.920;2.342;2023-06-10T05:13:16;7.33;;;6.00;;
73959;SDS011;62316;48.920;2.342;2023-06-10T05:15:41;8.00;;;8.00;;
73959;SDS011;62316;48.920;2.342;2023-06-10T05:18:09;8.00;;;8.00;;
73959;SDS011;62316;48.920;2.342;2023-06-10T05:20:35;11.33;;;9.33;;
73959;SDS011;62316;48.920;2.342;2023-06-10T05:23:00;9.33;;;7.67;;
73959;SDS011;62316;48.920;2.342;2023-06-10T05:25:26;8.00;;;8.00;;
73959;SDS011;62316;48.920;2.342;2023-06-10T05:27:53;8.00;;;8.00;;
73959;SDS011;62316;48.920;2.342;2023-06-10T05:30:18;8.67;;;8.67;;
73959;SDS011;62316;48.920;2.342;2023-06-10T05:32:44;9.67;;;9.33;;
73959;SDS011;62316;48.920;2.342;2023-06-10T05:35:09;10.67;;;10.00;;
73959;SDS011;62316;48.920;2.342;2023-06-10T05:37:35;9.00;;;9.00;;
73959;SDS011;62316;48.920;2.342;2023-06-10T05:40:02;11.00;;;10.00;;
73959;SDS011;62316;48.920;2.342;2023-06-10T05:42:29;7.67;;;7.67;;
73959;SDS011;62316;48.920;2.342;2023-06-10T05:44:54;8.67;;;8.33;;
73959;SDS011;62316;48.920;2.342;2023-06-10T05:47:20;8.00;;;7.00;;
73959;SDS011;62316;48.920;2.342;2023-06-10T05:49:45;9.67;;;9.33;;
73959;SDS011;62316;48.920;2.342;2023-06-10T05:52:13;10.33;;;9.67;;
73959;SDS011;62316;48.920;2.342;2023-06-10T05:54:38;10.33;;;8.00;;
73959;SDS011;62316;48.920;2.342;2023-06-10T05:57:04;8.67;;;8.00;;
73959;SDS011;62316;48.920;2.342;2023-06-10T05:59:30;10.33;;;9.00;;
73959;SDS011;62316;48.920;2.342;2023-06-10T06:01:56;8.33;;;7.67;;
73959;SDS011;62316;48.920;2.342;2023-06-10T06:04:21;7.67;;;6.00;;
73959;SDS011;62316;48.920;2.342;2023-06-10T06:06:46;9.00;;;6.00;;
73959;SDS011;62316;48.920;2.342;2023-06-10T06:09:12;7.00;;;7.00;;
73959;SDS011;62316;48.920;2.342;2023-06-10T06:11:37;13.00;;;9.33;;
73959;SDS011;62316;48.920;2.342;2023-06-10T06:14:03;8.33;;;7.33;;
73959;SDS011;62316;48.920;2.342;2023-06-10T06:16:28;10.67;;;8.67;;
73959;SDS011;62316;48.920;2.342;2023-06-10T06:18:54;5.67;;;5.67;;
73959;SDS011;62316;48.920;2.342;2023-06-10T06:21:19;7.67;;;7.33;;
73959;SDS011;62316;48.920;2.342;2023-06-10T06:23:45;9.00;;;7.33;;
73959;SDS011;62316;48.920;2.342;2023-06-10T06:26:10;9.33;;;8.67;;
73959;SDS011;62316;48.920;2.342;2023-06-10T06:28:36;12.00;;;11.00;;
73959;SDS011;62316;48.920;2.342;2023-06-10T06:31:01;12.33;;;10.33;;
73959;SDS011;62316;48.920;2.342;2023-06-10T06:33:26;9.67;;;7.33;;
73959;SDS011;62316;48.920;2.342;2023-06-10T06:35:52;9.67;;;8.67;;
73959;SDS011;62316;48.920;2.342;2023-06-10T06:38:17;7.50;;;7.50;;
73959;SDS011;62316;48.920;2.342;2023-06-10T06:40:43;8.67;;;7.67;;
73959;SDS011;62316;48.920;2.342;2023-06-10T06:43:08;6.67;;;6.00;;
73959;SDS011;62316;48.920;2.342;2023-06-10T06:45:33;9.00;;;9.00;;
73959;SDS011;62316;48.920;2.342;2023-06-10T06:47:59;8.33;;;7.67;;
73959;SDS011;62316;48.920;2.342;2023-06-10T06:50:24;9.00;;;7.67;;
73959;SDS011;62316;48.920;2.342;2023-06-10T06:52:49;6.00;;;6.00;;
73959;SDS011;62316;48.920;2.342;2023-06-10T06:55:15;11.00;;;8.50;;
73959;SDS011;62316;48.920;2.342;2023-06-10T06:57:40;4.67;;;4.67;;
73959;SDS011;62316;48.920;2.342;2023-06-10T07:00:06;9.67;;;8.33;;
73959;SDS011;62316;48.920;2.342;2023-06-10T07:02:39;8.33;;;8.00;;
73959;SDS011;62316;48.920;2.342;2023-06-10T07:05:05;6.67;;;6.67;;
73959;SDS011;62316;48.920;2.342;2023-06-10T07:07:32;8.00;;;8.00;;
73959;SDS011;62316;48.920;2.342;2023-06-10T07:09:57;10.00;;;6.67;;
73959;SDS011;62316;48.920;2.342;2023-06-10T07:12:22;7.67;;;7.67;;
73959;SDS011;62316;48.920;2.342;2023-06-10T07:14:49;9.00;;;7.67;;
73959;SDS011;62316;48.920;2.342;2023-06-10T07:17:15;8.00;;;8.00;;
73959;SDS011;62316;48.920;2.342;2023-06-10T07:19:42;7.33;;;7.33;;
73959;SDS011;62316;48.920;2.342;2023-06-10T07:22:08;8.00;;;8.00;;
73959;SDS011;62316;48.920;2.342;2023-06-10T07:24:34;8.67;;;8.67;;
73959;SDS011;62316;48.920;2.342;2023-06-10T07:26:59;8.33;;;7.33;;
73959;SDS011;62316;48.920;2.342;2023-06-10T07:29:24;7.00;;;7.00;;
73959;SDS011;62316;48.920;2.342;2023-06-10T07:31:59;7.00;;;7.00;;
73959;SDS011;62316;48.920;2.342;2023-06-10T07:34:25;5.67;;;5.67;;
73959;SDS011;62316;48.920;2.342;2023-06-10T07:36:50;7.00;;;7.00;;
73959;SDS011;62316;48.920;2.342;2023-06-10T07:39:16;9.00;;;7.67;;
73959;SDS011;62316;48.920;2.342;2023-06-10T07:41:41;6.00;;;6.00;;
73959;SDS011;62316;48.920;2.342;2023-06-10T07:44:07;6.00;;;6.00;;
73959;SDS011;62316;48.920;2.342;2023-06-10T07:46:32;10.00;;;7.00;;
73959;SDS011;62316;48.920;2.342;2023-06-10T07:48:57;7.00;;;6.33;;
73959;SDS011;62316;48.920;2.342;2023-06-10T07:51:23;7.67;;;7.67;;
73959;SDS011;62316;48.920;2.342;2023-06-10T07:53:48;6.33;;;6.00;;
73959;SDS011;62316;48.920;2.342;2023-06-10T07:56:20;11.00;;;9.67;;
73959;SDS011;62316;48.920;2.342;2023-06-10T07:58:46;7.33;;;6.67;;
73959;SDS011;62316;48.920;2.342;2023-06-10T08:01:11;6.00;;;6.00;;
73959;SDS011;62316;48.920;2.342;2023-06-10T08:03:37;9.00;;;7.67;;
73959;SDS011;62316;48.920;2.342;2023-06-10T08:06:02;11.50;;;8.75;;
73959;SDS011;62316;48.920;2.342;2023-06-10T08:08:28;7.67;;;7.33;;
73959;SDS011;62316;48.920;2.342;2023-06-10T08:10:53;9.00;;;7.00;;
73959;SDS011;62316;48.920;2.342;2023-06-10T08:13:18;8.67;;;7.00;;
73959;SDS011;62316;48.920;2.342;2023-06-10T08:15:44;8.00;;;8.00;;
73959;SDS011;62316;48.920;2.342;2023-06-10T08:18:09;7.00;;;7.00;;
73959;SDS011;62316;48.920;2.342;2023-06-10T08:20:35;9.00;;;9.00;;
73959;SDS011;62316;48.920;2.342;2023-06-10T08:23:00;7.00;;;7.00;;
73959;SDS011;62316;48.920;2.342;2023-06-10T08:25:26;7.00;;;7.00;;
73959;SDS011;62316;48.920;2.342;2023-06-10T08:27:51;8.33;;;7.00;;
73959;SDS011;62316;48.920;2.342;2023-06-10T08:30:17;11.67;;;11.00;;
73959;SDS011;62316;48.920;2.342;2023-06-10T08:32:43;9.67;;;9.67;;
73959;SDS011;62316;48.920;2.342;2023-06-10T08:35:10;8.67;;;8.33;;
73959;SDS011;62316;48.920;2.342;2023-06-10T08:37:36;9.67;;;8.00;;
73959;SDS011;62316;48.920;2.342;2023-06-10T08:40:01;6.00;;;6.00;;
73959;SDS011;62316;48.920;2.342;2023-06-10T08:42:28;9.67;;;9.33;;
73959;SDS011;62316;48.920;2.342;2023-06-10T08:45:10;10.00;;;10.00;;
73959;SDS011;62316;48.920;2.342;2023-06-10T08:47:38;9.33;;;9.33;;
73959;SDS011;62316;48.920;2.342;2023-06-10T08:50:06;10.67;;;9.67;;
73959;SDS011;62316;48.920;2.342;2023-06-10T08:52:35;8.33;;;8.33;;
73959;SDS011;62316;48.920;2.342;2023-06-10T08:57:29;13.33;;;11.33;;
73959;SDS011;62316;48.920;2.342;2023-06-10T08:59:55;11.00;;;11.00;;
73959;SDS011;62316;48.920;2.342;2023-06-10T09:02:22;12.67;;;11.33;;
73959;SDS011;62316;48.920;2.342;2023-06-10T09:04:47;7.33;;;7.33;;
73959;SDS011;62316;48.920;2.342;2023-06-10T09:07:15;13.67;;;12.00;;
73959;SDS011;62316;48.920;2.342;2023-06-10T09:09:41;11.00;;;10.00;;
73959;SDS011;62316;48.920;2.342;2023-06-10T09:12:08;9.33;;;8.00;;
73959;SDS011;62316;48.920;2.342;2023-06-10T09:14:33;8.33;;;7.67;;
73959;SDS011;62316;48.920;2.342;2023-06-10T09:16:59;12.00;;;9.00;;
73959;SDS011;62316;48.920;2.342;2023-06-10T09:19:27;15.75;;;12.00;;
73959;SDS011;62316;48.920;2.342;2023-06-10T09:21:53;8.00;;;6.00;;
73959;SDS011;62316;48.920;2.342;2023-06-10T09:24:20;10.00;;;9.00;;
73959;SDS011;62316;48.920;2.342;2023-06-10T09:26:47;11.25;;;11.25;;
73959;SDS011;62316;48.920;2.342;2023-06-10T09:29:12;9.50;;;9.00;;
73959;SDS011;62316;48.920;2.342;2023-06-10T09:31:38;8.00;;;8.00;;
73959;SDS011;62316;48.920;2.342;2023-06-10T09:34:10;10.00;;;10.00;;
73959;SDS011;62316;48.920;2.342;2023-06-10T09:36:37;14.75;;;13.75;;
73959;SDS011;62316;48.920;2.342;2023-06-10T09:39:03;15.25;;;15.25;;
73959;SDS011;62316;48.920;2.342;2023-06-10T09:41:39;10.75;;;10.75;;
73959;SDS011;62316;48.920;2.342;2023-06-10T09:44:15;11.00;;;11.00;;
73959;SDS011;62316;48.920;2.342;2023-06-10T09:46:42;12.67;;;8.00;;
73959;SDS011;62316;48.920;2.342;2023-06-10T09:49:10;8.75;;;8.75;;
73959;SDS011;62316;48.920;2.342;2023-06-10T09:51:35;9.00;;;7.25;;
73959;SDS011;62316;48.920;2.342;2023-06-10T09:54:04;8.25;;;8.00;;
73959;SDS011;62316;48.920;2.342;2023-06-10T09:56:35;6.75;;;5.75;;
73959;SDS011;62316;48.920;2.342;2023-06-10T09:59:01;7.75;;;7.75;;
73959;SDS011;62316;48.920;2.342;2023-06-10T10:01:27;7.00;;;7.00;;
73959;SDS011;62316;48.920;2.342;2023-06-10T10:03:53;8.00;;;7.00;;
73959;SDS011;62316;48.920;2.342;2023-06-10T10:06:19;7.00;;;7.00;;
73959;SDS011;62316;48.920;2.342;2023-06-10T10:08:46;8.00;;;7.50;;
73959;SDS011;62316;48.920;2.342;2023-06-10T10:11:16;9.25;;;9.00;;
73959;SDS011;62316;48.920;2.342;2023-06-10T10:13:44;6.00;;;5.50;;
73959;SDS011;62316;48.920;2.342;2023-06-10T10:16:11;8.67;;;7.00;;
73959;SDS011;62316;48.920;2.342;2023-06-10T10:18:43;8.00;;;6.75;;
73959;SDS011;62316;48.920;2.342;2023-06-10T10:21:11;7.50;;;7.00;;
73959;SDS011;62316;48.920;2.342;2023-06-10T10:23:40;6.25;;;5.00;;
73959;SDS011;62316;48.920;2.342;2023-06-10T10:26:15;8.00;;;7.00;;
73959;SDS011;62316;48.920;2.342;2023-06-10T10:28:45;7.50;;;7.50;;
73959;SDS011;62316;48.920;2.342;2023-06-10T10:31:14;13.25;;;10.00;;
73959;SDS011;62316;48.920;2.342;2023-06-10T10:36:26;5.75;;;4.50;;
73959;SDS011;62316;48.920;2.342;2023-06-10T10:38:52;9.25;;;8.25;;
73959;SDS011;62316;48.920;2.342;2023-06-10T10:41:18;7.50;;;7.50;;
73959;SDS011;62316;48.920;2.342;2023-06-10T10:43:45;9.33;;;8.00;;
73959;SDS011;62316;48.920;2.342;2023-06-10T10:46:12;7.00;;;7.00;;
73959;SDS011;62316;48.920;2.342;2023-06-10T10:48:39;3.50;;;3.00;;
73959;SDS011;62316;48.920;2.342;2023-06-10T10:51:08;9.00;;;7.75;;
73959;SDS011;62316;48.920;2.342;2023-06-10T10:53:34;11.50;;;8.50;;
73959;SDS011;62316;48.920;2.342;2023-06-10T10:56:02;7.50;;;7.50;;
73959;SDS011;62316;48.920;2.342;2023-06-10T10:58:35;10.25;;;9.25;;
73959;SDS011;62316;48.920;2.342;2023-06-10T11:01:09;9.50;;;9.50;;
73959;SDS011;62316;48.920;2.342;2023-06-10T11:03:44;8.25;;;7.00;;
73959;SDS011;62316;48.920;2.342;2023-06-10T11:06:15;11.75;;;8.25;;
73959;SDS011;62316;48.920;2.342;2023-06-10T11:11:23;10.25;;;9.75;;
73959;SDS011;62316;48.920;2.342;2023-06-10T11:16:37;10.00;;;10.00;;
73959;SDS011;62316;48.920;2.342;2023-06-10T11:19:06;9.25;;;8.50;;
73959;SDS011;62316;48.920;2.342;2023-06-10T11:21:32;7.00;;;7.00;;
73959;SDS011;62316;48.920;2.342;2023-06-10T11:24:13;10.67;;;9.67;;
73959;SDS011;62316;48.920;2.342;2023-06-10T11:26:43;11.25;;;11.25;;
73959;SDS011;62316;48.920;2.342;2023-06-10T11:29:09;10.25;;;8.00;;
73959;SDS011;62316;48.920;2.342;2023-06-10T11:31:41;9.00;;;9.00;;
73959;SDS011;62316;48.920;2.342;2023-06-10T11:34:12;9.50;;;9.50;;
73959;SDS011;62316;48.920;2.342;2023-06-10T11:36:39;8.00;;;7.25;;
73959;SDS011;62316;48.920;2.342;2023-06-10T11:39:07;11.00;;;11.00;;
73959;SDS011;62316;48.920;2.342;2023-06-10T11:41:34;10.75;;;9.50;;
73959;SDS011;62316;48.920;2.342;2023-06-10T11:44:03;12.25;;;10.50;;
73959;SDS011;62316;48.920;2.342;2023-06-10T11:46:30;10.25;;;9.50;;
73959;SDS011;62316;48.920;2.342;2023-06-10T11:48:56;12.75;;;12.50;;
73959;SDS011;62316;48.920;2.342;2023-06-10T11:51:27;12.00;;;12.00;;
73959;SDS011;62316;48.920;2.342;2023-06-10T11:53:53;8.50;;;7.00;;
73959;SDS011;62316;48.920;2.342;2023-06-10T11:56:20;8.00;;;6.50;;
73959;SDS011;62316;48.920;2.342;2023-06-10T11:58:52;5.75;;;5.50;;
73959;SDS011;62316;48.920;2.342;2023-06-10T12:01:20;9.00;;;8.25;;
73959;SDS011;62316;48.920;2.342;2023-06-10T12:03:46;4.00;;;4.00;;
73959;SDS011;62316;48.920;2.342;2023-06-10T12:06:12;9.75;;;9.25;;
73959;SDS011;62316;48.920;2.342;2023-06-10T12:08:41;8.75;;;8.00;;
73959;SDS011;62316;48.920;2.342;2023-06-10T12:11:07;6.00;;;6.00;;
73959;SDS011;62316;48.920;2.342;2023-06-10T12:13:32;8.50;;;8.50;;
73959;SDS011;62316;48.920;2.342;2023-06-10T12:16:07;9.00;;;7.00;;
73959;SDS011;62316;48.920;2.342;2023-06-10T12:18:33;6.50;;;6.50;;
73959;SDS011;62316;48.920;2.342;2023-06-10T12:20:59;8.50;;;8.50;;
73959;SDS011;62316;48.920;2.342;2023-06-10T12:23:24;8.75;;;7.75;;
73959;SDS011;62316;48.920;2.342;2023-06-10T12:25:51;7.50;;;6.50;;
73959;SDS011;62316;48.920;2.342;2023-06-10T12:28:20;6.50;;;5.25;;
73959;SDS011;62316;48.920;2.342;2023-06-10T12:30:49;6.75;;;6.75;;
73959;SDS011;62316;48.920;2.342;2023-06-10T12:33:18;6.50;;;6.50;;
73959;SDS011;62316;48.920;2.342;2023-06-10T12:35:48;9.75;;;8.50;;
73959;SDS011;62316;48.920;2.342;2023-06-10T12:38:14;10.75;;;8.00;;
73959;SDS011;62316;48.920;2.342;2023-06-10T12:40:39;8.50;;;7.75;;
73959;SDS011;62316;48.920;2.342;2023-06-10T12:43:06;10.00;;;8.00;;
73959;SDS011;62316;48.920;2.342;2023-06-10T12:45:33;8.25;;;8.25;;
73959;SDS011;62316;48.920;2.342;2023-06-10T12:50:31;8.00;;;7.00;;
73959;SDS011;62316;48.920;2.342;2023-06-10T12:52:57;8.75;;;8.75;;
73959;SDS011;62316;48.920;2.342;2023-06-10T12:55:22;9.25;;;9.25;;
73959;SDS011;62316;48.920;2.342;2023-06-10T12:57:48;8.00;;;7.25;;
73959;SDS011;62316;48.920;2.342;2023-06-10T13:00:15;7.75;;;7.25;;
73959;SDS011;62316;48.920;2.342;2023-06-10T13:02:41;9.75;;;8.25;;
73959;SDS011;62316;48.920;2.342;2023-06-10T13:05:06;8.00;;;7.00;;
73959;SDS011;62316;48.920;2.342;2023-06-10T13:07:41;10.50;;;10.50;;
73959;SDS011;62316;48.920;2.342;2023-06-10T13:10:07;8.50;;;7.50;;
73959;SDS011;62316;48.920;2.342;2023-06-10T13:12:32;7.50;;;7.50;;
73959;SDS011;62316;48.920;2.342;2023-06-10T13:14:58;8.00;;;8.00;;
73959;SDS011;62316;48.920;2.342;2023-06-10T13:17:23;8.33;;;7.33;;
73959;SDS011;62316;48.920;2.342;2023-06-10T13:19:49;8.25;;;7.50;;
73959;SDS011;62316;48.920;2.342;2023-06-10T13:22:14;7.25;;;7.25;;
73959;SDS011;62316;48.920;2.342;2023-06-10T13:24:40;10.75;;;10.50;;
73959;SDS011;62316;48.920;2.342;2023-06-10T13:27:06;8.00;;;7.00;;
73959;SDS011;62316;48.920;2.342;2023-06-10T13:29:32;11.25;;;11.25;;
73959;SDS011;62316;48.920;2.342;2023-06-10T13:31:57;10.00;;;8.50;;
73959;SDS011;62316;48.920;2.342;2023-06-10T13:34:23;10.25;;;10.25;;
73959;SDS011;62316;48.920;2.342;2023-06-10T13:36:48;8.00;;;8.00;;
73959;SDS011;62316;48.920;2.342;2023-06-10T13:39:13;9.25;;;9.00;;
73959;SDS011;62316;48.920;2.342;2023-06-10T13:41:40;14.25;;;9.25;;
73959;SDS011;62316;48.920;2.342;2023-06-10T13:44:06;11.00;;;10.75;;
73959;SDS011;62316;48.920;2.342;2023-06-10T13:46:31;10.25;;;8.50;;
73959;SDS011;62316;48.920;2.342;2023-06-10T13:48:57;9.00;;;8.00;;
73959;SDS011;62316;48.920;2.342;2023-06-10T13:51:22;9.50;;;8.00;;
73959;SDS011;62316;48.920;2.342;2023-06-10T13:53:47;10.50;;;10.50;;
73959;SDS011;62316;48.920;2.342;2023-06-10T13:56:13;8.00;;;8.00;;
73959;SDS011;62316;48.920;2.342;2023-06-10T13:58:39;8.50;;;7.50;;
73959;SDS011;62316;48.920;2.342;2023-06-10T14:01:06;10.50;;;9.00;;
73959;SDS011;62316;48.920;2.342;2023-06-10T14:03:32;7.75;;;6.50;;
73959;SDS011;62316;48.920;2.342;2023-06-10T14:05:57;9.00;;;9.00;;
73959;SDS011;62316;48.920;2.342;2023-06-10T14:08:23;9.50;;;7.75;;
73959;SDS011;62316;48.920;2.342;2023-06-10T14:10:48;8.25;;;8.25;;
73959;SDS011;62316;48.920;2.342;2023-06-10T14:13:15;9.50;;;8.00;;
73959;SDS011;62316;48.920;2.342;2023-06-10T14:15:41;8.25;;;8.25;;
73959;SDS011;62316;48.920;2.342;2023-06-10T14:18:06;12.50;;;9.25;;
73959;SDS011;62316;48.920;2.342;2023-06-10T14:20:32;9.00;;;8.25;;
73959;SDS011;62316;48.920;2.342;2023-06-10T14:22:57;9.00;;;9.00;;
73959;SDS011;62316;48.920;2.342;2023-06-10T14:25:23;8.75;;;8.00;;
73959;SDS011;62316;48.920;2.342;2023-06-10T14:27:49;10.67;;;8.00;;
73959;SDS011;62316;48.920;2.342;2023-06-10T14:30:14;11.25;;;10.25;;
73959;SDS011;62316;48.920;2.342;2023-06-10T14:32:41;8.25;;;7.50;;
73959;SDS011;62316;48.920;2.342;2023-06-10T14:35:06;13.50;;;9.00;;
73959;SDS011;62316;48.920;2.342;2023-06-10T14:37:32;10.00;;;9.00;;
73959;SDS011;62316;48.920;2.342;2023-06-10T14:39:57;9.00;;;9.00;;
73959;SDS011;62316;48.920;2.342;2023-06-10T14:42:29;10.67;;;9.00;;
73959;SDS011;62316;48.920;2.342;2023-06-10T14:44:55;9.25;;;9.00;;
73959;SDS011;62316;48.920;2.342;2023-06-10T14:47:20;11.00;;;9.50;;
73959;SDS011;62316;48.920;2.342;2023-06-10T14:49:45;8.25;;;8.25;;
73959;SDS011;62316;48.920;2.342;2023-06-10T14:52:11;6.00;;;6.00;;
73959;SDS011;62316;48.920;2.342;2023-06-10T14:54:36;6.00;;;6.00;;
73959;SDS011;62316;48.920;2.342;2023-06-10T14:57:02;10.00;;;8.50;;
73959;SDS011;62316;48.920;2.342;2023-06-10T14:59:27;13.50;;;11.75;;
73959;SDS011;62316;48.920;2.342;2023-06-10T15:01:53;8.33;;;8.33;;
73959;SDS011;62316;48.920;2.342;2023-06-10T15:04:18;10.50;;;9.25;;
73959;SDS011;62316;48.920;2.342;2023-06-10T15:06:44;6.00;;;6.00;;
73959;SDS011;62316;48.920;2.342;2023-06-10T15:09:09;10.00;;;10.00;;
73959;SDS011;62316;48.920;2.342;2023-06-10T15:11:35;9.75;;;7.25;;
73959;SDS011;62316;48.920;2.342;2023-06-10T15:14:01;10.25;;;10.00;;
73959;SDS011;62316;48.920;2.342;2023-06-10T15:16:26;8.00;;;7.00;;
73959;SDS011;62316;48.920;2.342;2023-06-10T15:18:52;10.00;;;10.00;;
73959;SDS011;62316;48.920;2.342;2023-06-10T15:21:17;9.25;;;8.00;;
73959;SDS011;62316;48.920;2.342;2023-06-10T15:23:42;9.75;;;8.50;;
73959;SDS011;62316;48.920;2.342;2023-06-10T15:26:08;7.00;;;7.00;;
73959;SDS011;62316;48.920;2.342;2023-06-10T15:28:34;9.50;;;8.00;;
73959;SDS011;62316;48.920;2.342;2023-06-10T15:30:59;10.00;;;8.25;;
73959;SDS011;62316;48.920;2.342;2023-06-10T15:33:24;9.50;;;9.50;;
73959;SDS011;62316;48.920;2.342;2023-06-10T15:35:50;15.00;;;13.50;;
73959;SDS011;62316;48.920;2.342;2023-06-10T15:38:17;8.50;;;7.50;;
73959;SDS011;62316;48.920;2.342;2023-06-10T15:40:42;9.00;;;8.00;;
73959;SDS011;62316;48.920;2.342;2023-06-10T15:43:08;9.00;;;8.00;;
73959;SDS011;62316;48.920;2.342;2023-06-10T15:45:34;10.25;;;10.25;;
73959;SDS011;62316;48.920;2.342;2023-06-10T15:47:59;17.00;;;15.50;;
73959;SDS011;62316;48.920;2.342;2023-06-10T15:50:25;9.50;;;9.50;;
73959;SDS011;62316;48.920;2.342;2023-06-10T15:52:50;10.25;;;10.25;;
73959;SDS011;62316;48.920;2.342;2023-06-10T15:55:16;8.25;;;6.50;;
73959;SDS011;62316;48.920;2.342;2023-06-10T15:57:41;9.67;;;9.00;;
73959;SDS011;62316;48.920;2.342;2023-06-10T16:00:07;11.00;;;9.00;;
73959;SDS011;62316;48.920;2.342;2023-06-10T16:02:33;10.75;;;8.50;;
73959;SDS011;62316;48.920;2.342;2023-06-10T16:04:58;8.25;;;8.25;;
73959;SDS011;62316;48.920;2.342;2023-06-10T16:07:24;9.75;;;9.75;;
73959;SDS011;62316;48.920;2.342;2023-06-10T16:09:49;10.50;;;9.50;;
73959;SDS011;62316;48.920;2.342;2023-06-10T16:12:15;11.50;;;10.75;;
73959;SDS011;62316;48.920;2.342;2023-06-10T16:14:40;9.75;;;8.25;;
73959;SDS011;62316;48.920;2.342;2023-06-10T16:17:06;10.00;;;8.75;;
73959;SDS011;62316;48.920;2.342;2023-06-10T16:19:31;9.00;;;8.00;;
73959;SDS011;62316;48.920;2.342;2023-06-10T16:21:56;8.25;;;8.25;;
73959;SDS011;62316;48.920;2.342;2023-06-10T16:24:22;8.75;;;8.00;;
73959;SDS011;62316;48.920;2.342;2023-06-10T16:26:47;8.75;;;8.75;;
73959;SDS011;62316;48.920;2.342;2023-06-10T16:29:13;10.00;;;9.00;;
73959;SDS011;62316;48.920;2.342;2023-06-10T16:31:39;16.00;;;13.75;;
73959;SDS011;62316;48.920;2.342;2023-06-10T16:34:04;18.75;;;18.75;;
73959;SDS011;62316;48.920;2.342;2023-06-10T16:36:30;20.75;;;18.75;;
73959;SDS011;62316;48.920;2.342;2023-06-10T16:38:55;39.50;;;34.50;;
73959;SDS011;62316;48.920;2.342;2023-06-10T16:41:22;21.00;;;17.50;;
73959;SDS011;62316;48.920;2.342;2023-06-10T16:43:47;11.25;;;11.25;;
73959;SDS011;62316;48.920;2.342;2023-06-10T16:46:13;18.50;;;16.50;;
73959;SDS011;62316;48.920;2.342;2023-06-10T16:48:38;13.00;;;11.00;;
73959;SDS011;62316;48.920;2.342;2023-06-10T16:51:03;18.50;;;13.75;;
73959;SDS011;62316;48.920;2.342;2023-06-10T16:53:30;17.00;;;15.25;;
73959;SDS011;62316;48.920;2.342;2023-06-10T16:55:55;14.50;;;14.50;;
73959;SDS011;62316;48.920;2.342;2023-06-10T16:58:21;15.75;;;14.50;;
73959;SDS011;62316;48.920;2.342;2023-06-10T17:00:46;22.25;;;18.75;;
73959;SDS011;62316;48.920;2.342;2023-06-10T17:03:12;32.75;;;29.00;;
73959;SDS011;62316;48.920;2.342;2023-06-10T17:05:38;18.25;;;18.25;;
73959;SDS011;62316;48.920;2.342;2023-06-10T17:08:03;18.00;;;15.00;;
73959;SDS011;62316;48.920;2.342;2023-06-10T17:10:29;22.75;;;20.75;;
73959;SDS011;62316;48.920;2.342;2023-06-10T17:12:54;14.50;;;13.75;;
73959;SDS011;62316;48.920;2.342;2023-06-10T17:15:20;18.00;;;11.75;;
73959;SDS011;62316;48.920;2.342;2023-06-10T17:17:45;13.50;;;12.75;;
73959;SDS011;62316;48.920;2.342;2023-06-10T17:20:11;9.75;;;9.25;;
73959;SDS011;62316;48.920;2.342;2023-06-10T17:22:36;7.67;;;7.67;;
73959;SDS011;62316;48.920;2.342;2023-06-10T17:25:02;11.50;;;11.50;;
73959;SDS011;62316;48.920;2.342;2023-06-10T17:27:28;11.50;;;11.50;;
73959;SDS011;62316;48.920;2.342;2023-06-10T17:29:54;12.00;;;11.25;;
73959;SDS011;62316;48.920;2.342;2023-06-10T17:32:19;13.75;;;12.25;;
73959;SDS011;62316;48.920;2.342;2023-06-10T17:34:45;11.25;;;11.00;;
73959;SDS011;62316;48.920;2.342;2023-06-10T17:37:10;12.50;;;12.25;;
73959;SDS011;62316;48.920;2.342;2023-06-10T17:39:35;10.00;;;10.00;;
73959;SDS011;62316;48.920;2.342;2023-06-10T17:42:01;11.00;;;11.00;;
73959;SDS011;62316;48.920;2.342;2023-06-10T17:44:26;9.50;;;9.50;;
73959;SDS011;62316;48.920;2.342;2023-06-10T17:46:53;13.75;;;12.75;;
73959;SDS011;62316;48.920;2.342;2023-06-10T17:49:20;13.50;;;13.25;;
73959;SDS011;62316;48.920;2.342;2023-06-10T17:51:47;12.25;;;12.00;;
73959;SDS011;62316;48.920;2.342;2023-06-10T17:54:13;10.75;;;9.75;;
73959;SDS011;62316;48.920;2.342;2023-06-10T17:56:39;12.50;;;11.00;;
73959;SDS011;62316;48.920;2.342;2023-06-10T17:59:04;10.75;;;10.75;;
73959;SDS011;62316;48.920;2.342;2023-06-10T18:01:30;14.75;;;12.00;;
73959;SDS011;62316;48.920;2.342;2023-06-10T18:03:55;15.25;;;12.75;;
73959;SDS011;62316;48.920;2.342;2023-06-10T18:06:20;10.25;;;10.00;;
73959;SDS011;62316;48.920;2.342;2023-06-10T18:08:46;11.25;;;10.50;;
73959;SDS011;62316;48.920;2.342;2023-06-10T18:11:11;12.75;;;11.50;;
73959;SDS011;62316;48.920;2.342;2023-06-10T18:13:36;10.25;;;9.50;;
73959;SDS011;62316;48.920;2.342;2023-06-10T18:16:02;11.25;;;11.25;;
73959;SDS011;62316;48.920;2.342;2023-06-10T18:18:28;13.25;;;10.50;;
73959;SDS011;62316;48.920;2.342;2023-06-10T18:20:53;10.50;;;10.50;;
73959;SDS011;62316;48.920;2.342;2023-06-10T18:23:19;13.25;;;11.75;;
73959;SDS011;62316;48.920;2.342;2023-06-10T18:25:44;13.00;;;11.50;;
73959;SDS011;62316;48.920;2.342;2023-06-10T18:28:10;9.00;;;9.00;;
73959;SDS011;62316;48.920;2.342;2023-06-10T18:30:35;12.00;;;12.00;;
73959;SDS011;62316;48.920;2.342;2023-06-10T18:33:00;11.25;;;10.75;;
73959;SDS011;62316;48.920;2.342;2023-06-10T18:35:33;11.33;;;10.33;;
73959;SDS011;62316;48.920;2.342;2023-06-10T18:37:58;10.00;;;10.00;;
73959;SDS011;62316;48.920;2.342;2023-06-10T18:40:23;10.00;;;9.33;;
73959;SDS011;62316;48.920;2.342;2023-06-10T18:42:49;11.50;;;9.25;;
73959;SDS011;62316;48.920;2.342;2023-06-10T18:45:14;10.25;;;10.25;;
73959;SDS011;62316;48.920;2.342;2023-06-10T18:47:40;10.25;;;10.25;;